地図

経路データ

SID SEASON NUMBER BASIN SUBBASIN NAME ISO_TIME NATURE LAT LON WMO_WIND WMO_PRES WMO_AGENCY TRACK_TYPE DIST2LAND LANDFALL IFLAG USA_AGENCY USA_ATCF_ID USA_LAT USA_LON USA_RECORD USA_STATUS USA_WIND USA_PRES USA_SSHS USA_R34_NE USA_R34_SE USA_R34_SW USA_R34_NW USA_R50_NE USA_R50_SE USA_R50_SW USA_R50_NW USA_R64_NE USA_R64_SE USA_R64_SW USA_R64_NW USA_POCI USA_ROCI USA_RMW USA_EYE TOKYO_LAT TOKYO_LON TOKYO_GRADE TOKYO_WIND TOKYO_PRES TOKYO_R50_DIR TOKYO_R50_LONG TOKYO_R50_SHORT TOKYO_R30_DIR TOKYO_R30_LONG TOKYO_R30_SHORT TOKYO_LAND CMA_LAT CMA_LON CMA_CAT CMA_WIND CMA_PRES HKO_LAT HKO_LON HKO_CAT HKO_WIND HKO_PRES NEWDELHI_LAT NEWDELHI_LON NEWDELHI_GRADE NEWDELHI_WIND NEWDELHI_PRES NEWDELHI_CI NEWDELHI_DP NEWDELHI_POCI REUNION_LAT REUNION_LON REUNION_TYPE REUNION_WIND REUNION_PRES REUNION_TNUM REUNION_CI REUNION_RMW REUNION_R34_NE REUNION_R34_SE REUNION_R34_SW REUNION_R34_NW REUNION_R50_NE REUNION_R50_SE REUNION_R50_SW REUNION_R50_NW REUNION_R64_NE REUNION_R64_SE REUNION_R64_SW REUNION_R64_NW BOM_LAT BOM_LON BOM_TYPE BOM_WIND BOM_PRES BOM_TNUM BOM_CI BOM_RMW BOM_R34_NE BOM_R34_SE BOM_R34_SW BOM_R34_NW BOM_R50_NE BOM_R50_SE BOM_R50_SW BOM_R50_NW BOM_R64_NE BOM_R64_SE BOM_R64_SW BOM_R64_NW BOM_ROCI BOM_POCI BOM_EYE BOM_POS_METHOD BOM_PRES_METHOD NADI_LAT NADI_LON NADI_CAT NADI_WIND NADI_PRES WELLINGTON_LAT WELLINGTON_LON WELLINGTON_WIND WELLINGTON_PRES DS824_LAT DS824_LON DS824_STAGE DS824_WIND DS824_PRES TD9636_LAT TD9636_LON TD9636_STAGE TD9636_WIND TD9636_PRES TD9635_LAT TD9635_LON TD9635_WIND TD9635_PRES TD9635_ROCI NEUMANN_LAT NEUMANN_LON NEUMANN_CLASS NEUMANN_WIND NEUMANN_PRES MLC_LAT MLC_LON MLC_CLASS MLC_WIND MLC_PRES USA_GUST BOM_GUST BOM_GUST_PER REUNION_GUST REUNION_GUST_PER USA_SEAHGT USA_SEARAD_NE USA_SEARAD_SE USA_SEARAD_SW USA_SEARAD_NW STORM_SPEED STORM_DIR
1855215N30272 1855 6 NA GM NOT_NAMED 1855-08-03 06:00:00 TS 30.1000 -88.2000 main 22 22 _____________O -1 30.1000 -88.2000 TS 35 1 270
1855215N30272 1855 6 NA GM NOT_NAMED 1855-08-03 09:00:00 TS 30.1000 -88.2406 main 22 22 _____________P -1 30.1000 -88.2406 TS 35 1 270
1855215N30272 1855 6 NA GM NOT_NAMED 1855-08-03 12:00:00 TS 30.1000 -88.3000 main 29 24 _____________O -1 30.1000 -88.3000 TS 35 1 270
1855215N30272 1855 6 NA GM NOT_NAMED 1855-08-03 15:00:00 TS 30.1001 -88.3906 main 24 22 _____________P -1 30.1001 -88.3906 TS 35 2 270
1855215N30272 1855 6 NA GM NOT_NAMED 1855-08-03 18:00:00 TS 30.1001 -88.5000 main 22 22 _____________P -1 30.1001 -88.5000 TS 35 2 270
1855215N30272 1855 6 NA GM NOT_NAMED 1855-08-03 21:00:00 TS 30.1001 -88.6094 main 24 22 _____________P -1 30.1001 -88.6094 TS 35 2 270
1855215N30272 1855 6 NA GM NOT_NAMED 1855-08-04 00:00:00 TS 30.1000 -88.7000 main 22 22 _____________O -1 30.1000 -88.7000 TS 35 2 270
1855215N30272 1855 6 NA GM NOT_NAMED 1855-08-04 03:00:00 TS 30.1000 -88.7875 main 24 24 _____________P -1 30.1000 -88.7875 TS 35 1 270
1855215N30272 1855 6 NA GM NOT_NAMED 1855-08-04 06:00:00 TS 30.1000 -88.8000 main 24 22 _____________O -1 30.1000 -88.8000 TS 35 1 90
1855215N30272 1855 6 NA GM NOT_NAMED 1855-08-04 09:00:00 TS 30.1001 -88.6275 main 24 22 _____________P -1 30.1001 -88.6275 TS 37 3 90
1855215N30272 1855 6 NA GM NOT_NAMED 1855-08-04 12:00:00 TS 30.1000 -88.5000 main 22 22 _____________O -1 30.1000 -88.5000 TS 40 0 259
1855215N30272 1855 6 NA GM NOT_NAMED 1855-08-04 15:00:00 TS 30.0926 -88.6625 main 22 22 _____________P -1 30.0926 -88.6625 TS 40 3 270
1855215N30272 1855 6 NA GM NOT_NAMED 1855-08-04 18:00:00 TS 30.1000 -88.9000 main 29 29 _____________O -1 30.1000 -88.9000 TS 40 3 281
1855215N30272 1855 6 NA GM NOT_NAMED 1855-08-04 21:00:00 TS 30.1499 -89.0150 main 29 14 _____________P -1 30.1499 -89.0150 TS 40 2 300
1855215N30272 1855 6 NA GM NOT_NAMED 1855-08-05 00:00:00 TS 30.2000 -89.1000 main 14 11 _____________O -1 30.2000 -89.1000 TS 40 2 290
1855215N30272 1855 6 NA GM NOT_NAMED 1855-08-05 03:00:00 TS 30.2075 -89.2000 main 11 11 _____________P -1 30.2075 -89.2000 TS 40 2 270
1855215N30272 1855 6 NA GM NOT_NAMED 1855-08-05 06:00:00 TS 30.2000 -89.3000 main 11 9 _____________O -1 30.2000 -89.3000 TS 40 2 268
1855215N30272 1855 6 NA GM NOT_NAMED 1855-08-05 09:00:00 TS 30.2000 -89.4000 main 9 0 _____________P -1 30.2000 -89.4000 TS 42 2 270
1855215N30272 1855 6 NA GM NOT_NAMED 1855-08-05 12:00:00 TS 30.2000 -89.5000 main 0 0 _____________O -1 30.2000 -89.5000 TS 45 2 268
1855215N30272 1855 6 NA GM NOT_NAMED 1855-08-05 15:00:00 TS 30.1925 -89.6000 main 0 0 _____________P -1 30.1925 -89.6000 TS 45 2 270
1855215N30272 1855 6 NA GM NOT_NAMED 1855-08-05 18:00:00 TS 30.2000 -89.7000 main 0 0 _____________O -1 30.2000 -89.7000 TS 45 2 288
1855215N30272 1855 6 NA GM NOT_NAMED 1855-08-05 21:00:00 TS 30.2500 -89.8000 main 9 0 _____________P -1 30.2500 -89.8000 TS 45 2 300
1855215N30272 1855 6 NA NA NOT_NAMED 1855-08-06 00:00:00 TS 30.3000 -89.9000 main 0 0 _____________O -1 30.3000 -89.9000 TS 45 2 288
1855215N30272 1855 6 NA GM NOT_NAMED 1855-08-06 03:00:00 TS 30.3075 -90.0000 main 9 9 _____________P -1 30.3075 -90.0000 TS 45 2 270
1855215N30272 1855 6 NA GM NOT_NAMED 1855-08-06 06:00:00 TS 30.3000 -90.1000 main 11 9 _____________O -1 30.3000 -90.1000 TS 45 2 268
1855215N30272 1855 6 NA GM NOT_NAMED 1855-08-06 09:00:00 TS 30.3000 -90.2150 main 9 0 _____________P -1 30.3000 -90.2150 TS 42 2 270
1855215N30272 1855 6 NA GM NOT_NAMED 1855-08-06 12:00:00 TS 30.3000 -90.3000 main 0 0 _____________O -1 30.3000 -90.3000 TS 40 1 265
1855215N30272 1855 6 NA GM NOT_NAMED 1855-08-06 15:00:00 TS 30.2925 -90.3075 main 0 0 _____________P -1 30.2925 -90.3075 TS 40 0 0
1855215N30272 1855 6 NA GM NOT_NAMED 1855-08-06 18:00:00 TS 30.3000 -90.3000 main 0 0 _____________O -1 30.3000 -90.3000 TS 40 1 333
1855215N30272 1855 6 NA GM NOT_NAMED 1855-08-06 21:00:00 TS 30.3425 -90.3275 main 0 0 _____________P -1 30.3425 -90.3275 TS 37 1 320
1855215N30272 1855 6 NA NA NOT_NAMED 1855-08-07 00:00:00 TS 30.4000 -90.4000 main 0 0 _____________O -1 30.4000 -90.4000 TS 35 2 302
1855215N30272 1855 6 NA NA NOT_NAMED 1855-08-07 03:00:00 TS 30.4526 -90.5325 main 0 0 _____________P -1 30.4526 -90.5325 TS 32 3 291
1855215N30272 1855 6 NA NA NOT_NAMED 1855-08-07 06:00:00 TS 30.5000 -90.7000 main 0 _____________O -1 30.5000 -90.7000 TD 30 3 289

IBTrACS Databaseについて

本データベースは、米国NOAAが公開する1842年以降の世界の熱帯低気圧のベストトラックデータアーカイブInternational Best Track Archive for Climate Stewardship (IBTrACS)を、ウェブで閲覧しやすい形式に変換したものです。

最終更新日:2021-12-08